Flight Track Log - Related Links

Times and Time Zones

All times are in EDT time to prevent confusion due to time zone crossing. See the N762NC flight status page for this flight to view local times or setup timezone preferences in your user account.

Time Position Orientation Groundspeed Altitude Reporting Facility
EDT Latitude Longitude Course Direction KTS MPH feet Rate Location/Type
Wed 09:24:46 PM 33.6333 -84.4667 84° East 96 110 2,300  Level Atlanta TRACON
Wed 09:25:40 PM 33.6000 -84.5167 231° Southwest 249 287 3,600 2,050 Climbing Atlanta TRACON
Wed 09:26:46 PM 33.5500 -84.5833 228° Southwest 268 308 6,400 2,356 Climbing Atlanta TRACON
Wed 09:27:00 PM 33.5850 -83.9124 86° East  Level Estimated
Wed 09:27:55 PM 33.4675 -84.5469 160° South 306 352 8,900  Level Atlanta Center
Wed 09:28:00 PM 33.5959 -83.7833 84° East  Level FlightAware Approximate
Wed 09:28:55 PM 33.4533 -84.4447 99° East 309 356 10,600  Level Atlanta Center
Wed 09:29:00 PM 33.6067 -83.6542 84° East  Level FlightAware Approximate
Wed 09:29:55 PM 33.4558 -84.3228 89° East 328 377 12,100  Level Atlanta Center
Wed 09:30:00 PM 33.6173 -83.5250 84° East  Level FlightAware Approximate
Wed 09:30:55 PM 33.4644 -84.1983 85° East 351 404 14,200  Level Atlanta Center
Wed 09:31:55 PM 33.4750 -84.0711 84° East 380 437 15,900 1,350 Climbing Atlanta Center
Wed 09:32:55 PM 33.4831 -83.9342 86° East 404 465 16,900 550 Climbing Atlanta Center
Wed 09:33:55 PM 33.4892 -83.7922 87° East 420 483 17,000 50 Climbing Atlanta Center
Wed 09:34:55 PM 33.4992 -83.6428 85° East 431 496 17,000  Level Atlanta Center
Wed 09:35:55 PM 33.5133 -83.4956 83° East 442 509 17,000  Level Atlanta Center
Wed 09:36:55 PM 33.5356 -83.3658 78° East 442 509 17,000  Level Atlanta Center
Wed 09:37:55 PM 33.5661 -83.2236 76° East 442 509 17,000 -100 Level Atlanta Center
Wed 09:38:55 PM 33.5944 -83.0836 76° East 437 503 16,800 -800 Descending Atlanta Center
Wed 09:39:55 PM 33.6225 -82.9436 76° East 424 488 15,400 -1,500 Descending Atlanta Center
Wed 09:40:55 PM 33.6419 -82.8136 80° East 408 470 13,800 -1,600 Descending Atlanta Center
Wed 09:41:55 PM 33.6364 -82.6839 93° East 392 451 12,200 -1,200 Descending Atlanta Center
Wed 09:42:55 PM 33.6058 -82.5622 107° East 385 443 11,400 -700 Descending Atlanta Center
Wed 09:43:55 PM 33.5814 -82.4456 104° East 347 399 10,800 -1,300 Descending Atlanta Center
Wed 09:44:55 PM 33.5592 -82.3461 105° East 322 371 8,800 -2,150 Descending Atlanta Center
Wed 09:45:55 PM 33.5350 -82.2519 107° East 306 352 6,500 -2,000 Descending Atlanta Center
Wed 09:46:55 PM 33.4961 -82.1731 121° Southeast 287 330 4,800 -1,600 Descending Atlanta Center
Wed 09:47:55 PM 33.4392 -82.1219 143° Southeast 265 305 3,300 -900 Descending Atlanta Center
Wed 09:48:55 PM 33.3881 -82.0733 142° Southeast 246 283 3,000 -150 Descending Atlanta Center
Wed 09:49:55 PM 33.3294 -82.0522 163° South 234 269 3,000 -450 Level Atlanta Center
Wed 09:50:55 PM 33.2808 -82.0261 156° South 217 250 2,100 -900 Descending Atlanta Center

Login

Don't have an account? Register now (free) for customized features, flight alerts, and more!